RIX weather

Riga International Airport
Riga, Riga (city), Latvia

Public forecast

Using degrees Celsius for public forecast. Weather courtesy of forecast.io.

METAR (pilot weather report)

Retrieved 2019/04/25 13:20 UTC (38 minutes ago):

EVRA 251320Z 16010KT CAVOK 22/03 Q1018 NOSIG

TAF (pilot weather forecast)

Retrieved 2019/04/25 15:03 UTC (0 seconds ago):

TAF TAF EVRA 251400Z 2515/2615 13007KT CAVOK TEMPO 2515/2521 SCT040CB